Time;durP1;ratioP1;P1;durP2;ratioP2;P2;SDS_P1;SDS_P2;PMS_P1;PMS_P2;Temp;Humidity;BMP_temperature;BMP_pressure;BME280_temperature;BME280_humidity;BME280_pressure;Samples;Min_cycle;Max_cycle;Signal;HPM_P1;HPM_P2
2023/07/06 00:01:42;;;;;;;6.45;4.63;;;;;;;;;;4974250;28;20476;-62
2023/07/06 00:04:10;;;;;;;6.30;4.07;;;;;;;;;;4974470;28;20428;-62
2023/07/06 00:06:39;;;;;;;6.38;4.10;;;;;;;;;;4974275;28;20491;-62
2023/07/06 00:09:06;;;;;;;6.60;4.10;;;;;;;;;;4973917;28;20434;-62
2023/07/06 00:11:35;;;;;;;5.70;3.90;;;;;;;;;;4985129;28;20499;-60
2023/07/06 00:14:02;;;;;;;6.15;4.35;;;;;;;;;;4986087;28;20427;-62
2023/07/06 00:16:29;;;;;;;6.40;4.20;;;;;;;;;;4980277;28;20415;-62
2023/07/06 00:18:58;;;;;;;5.65;4.07;;;;;;;;;;4986107;28;20422;-60
2023/07/06 00:21:25;;;;;;;6.78;4.45;;;;;;;;;;4986147;28;20429;-61
2023/07/06 00:23:55;;;;;;;9.05;4.43;;;;;;;;;;4983793;28;20891;-61
2023/07/06 00:26:22;;;;;;;4.70;4.13;;;;;;;;;;4985212;28;20430;-61
2023/07/06 00:28:49;;;;;;;6.10;3.90;;;;;;;;;;4982503;28;20493;-61
2023/07/06 00:31:21;;;;;;;6.15;4.22;;;;;;;;;;4984383;28;20424;-59
2023/07/06 00:33:48;;;;;;;6.53;4.50;;;;;;;;;;4982731;28;20859;-61
2023/07/06 00:36:15;;;;;;;7.43;4.38;;;;;;;;;;4982037;28;20436;-61
2023/07/06 00:38:43;;;;;;;5.40;4.45;;;;;;;;;;4984721;28;20512;-61
2023/07/06 00:41:11;;;;;;;7.00;4.00;;;;;;;;;;4984464;28;20423;-62
2023/07/06 00:43:49;;;;;;;6.20;3.90;;;;;;;;;;4980118;28;20420;-61
2023/07/06 00:46:16;;;;;;;7.28;4.45;;;;;;;;;;4983115;28;20417;-61
2023/07/06 00:48:45;;;;;;;6.93;4.63;;;;;;;;;;4990195;28;20430;-59
2023/07/06 00:51:16;;;;;;;7.00;4.30;;;;;;;;;;4988758;28;20469;-61
2023/07/06 00:53:44;;;;;;;6.80;4.40;;;;;;;;;;4983246;28;20435;-61
2023/07/06 00:56:16;;;;;;;7.03;4.68;;;;;;;;;;4984516;28;20776;-61
2023/07/06 00:58:44;;;;;;;5.72;4.60;;;;;;;;;;4980658;28;20430;-61
2023/07/06 01:01:12;;;;;;;9.43;4.80;;;;;;;;;;4984076;28;20453;-61
2023/07/06 01:03:43;;;;;;;8.65;4.80;;;;;;;;;;4983367;28;20942;-61
2023/07/06 01:06:12;;;;;;;7.85;4.85;;;;;;;;;;4991692;28;20430;-62
2023/07/06 01:08:39;;;;;;;7.17;4.90;;;;;;;;;;4983233;28;20418;-61
2023/07/06 01:11:08;;;;;;;7.28;5.10;;;;;;;;;;4983902;28;20422;-61
2023/07/06 01:13:36;;;;;;;10.25;5.00;;;;;;;;;;4981850;28;20449;-61
2023/07/06 01:16:08;;;;;;;8.73;5.00;;;;;;;;;;4982084;28;20494;-61
2023/07/06 01:18:39;;;;;;;7.22;5.32;;;;;;;;;;4985514;28;20476;-61
2023/07/06 01:21:12;;;;;;;7.43;5.00;;;;;;;;;;4985938;28;20428;-61
2023/07/06 01:23:58;;;;;;;6.13;4.75;;;;;;;;;;4982448;28;20441;-62
2023/07/06 01:26:36;;;;;;;7.30;5.25;;;;;;;;;;4980653;28;21080;-59
2023/07/06 01:29:11;;;;;;;7.50;5.10;;;;;;;;;;4982196;28;20416;-61
2023/07/06 01:31:45;;;;;;;8.85;5.53;;;;;;;;;;4981203;28;20471;-61
2023/07/06 01:34:16;;;;;;;7.72;5.50;;;;;;;;;;4984441;28;20430;-60
2023/07/06 01:36:47;;;;;;;8.05;5.35;;;;;;;;;;4981557;28;20435;-61
2023/07/06 01:39:15;;;;;;;8.52;4.93;;;;;;;;;;4984764;28;20423;-61
2023/07/06 01:41:42;;;;;;;8.27;5.25;;;;;;;;;;4979447;28;20883;-61
2023/07/06 01:44:11;;;;;;;7.88;4.97;;;;;;;;;;4983321;28;20414;-61
2023/07/06 01:46:39;;;;;;;9.10;5.47;;;;;;;;;;4981178;28;20429;-61
2023/07/06 01:49:07;;;;;;;7.65;5.70;;;;;;;;;;4986782;28;20484;-59
2023/07/06 01:51:39;;;;;;;10.13;5.95;;;;;;;;;;4990544;28;20757;-64
2023/07/06 01:54:08;;;;;;;10.30;5.80;;;;;;;;;;4979775;28;20527;-61
2023/07/06 01:56:38;;;;;;;8.85;5.78;;;;;;;;;;4980907;28;20920;-62
2023/07/06 01:59:07;;;;;;;6.72;5.40;;;;;;;;;;4979607;28;20490;-62
2023/07/06 02:01:37;;;;;;;8.98;4.97;;;;;;;;;;4980225;28;20420;-61
2023/07/06 02:04:06;;;;;;;7.68;5.32;;;;;;;;;;4977834;28;20420;-61
2023/07/06 02:06:35;;;;;;;8.13;5.55;;;;;;;;;;4980393;28;20436;-59
2023/07/06 02:09:03;;;;;;;8.50;5.90;;;;;;;;;;4981495;28;20426;-60
2023/07/06 02:11:30;;;;;;;9.57;5.67;;;;;;;;;;4982928;28;20760;-60
2023/07/06 02:13:57;;;;;;;8.07;5.60;;;;;;;;;;4981730;28;20438;-57
2023/07/06 02:16:25;;;;;;;10.32;5.80;;;;;;;;;;4980333;28;20824;-58
2023/07/06 02:18:53;;;;;;;8.75;5.50;;;;;;;;;;4983495;28;20422;-56
2023/07/06 02:21:22;;;;;;;9.95;6.10;;;;;;;;;;4986057;28;20452;-59
2023/07/06 02:23:50;;;;;;;7.45;5.82;;;;;;;;;;4971452;28;20463;-59
2023/07/06 02:26:17;;;;;;;8.05;5.55;;;;;;;;;;4972104;28;20431;-63
2023/07/06 02:28:44;;;;;;;9.97;6.53;;;;;;;;;;4982152;28;20501;-62
2023/07/06 02:31:11;;;;;;;12.38;6.15;;;;;;;;;;4978677;28;20548;-63
2023/07/06 02:33:38;;;;;;;8.23;5.95;;;;;;;;;;4980474;28;20922;-62
2023/07/06 02:36:06;;;;;;;8.50;5.80;;;;;;;;;;4982464;28;20434;-63
2023/07/06 02:38:34;;;;;;;7.97;6.07;;;;;;;;;;4982646;28;20428;-62
2023/07/06 02:41:04;;;;;;;8.32;5.70;;;;;;;;;;4982435;28;20422;-62
2023/07/06 02:43:31;;;;;;;11.98;6.60;;;;;;;;;;4983086;28;20418;-61
2023/07/06 02:45:58;;;;;;;9.18;6.13;;;;;;;;;;4982681;28;20896;-63
2023/07/06 02:48:25;;;;;;;10.52;6.22;;;;;;;;;;4979601;28;20468;-61
2023/07/06 02:50:52;;;;;;;8.98;6.00;;;;;;;;;;4985650;28;20504;-63
2023/07/06 02:53:21;;;;;;;8.32;6.47;;;;;;;;;;4987648;28;20426;-62
2023/07/06 02:55:48;;;;;;;8.48;5.85;;;;;;;;;;4978811;28;20931;-62
2023/07/06 02:58:18;;;;;;;9.17;5.97;;;;;;;;;;4984014;28;20567;-63
2023/07/06 03:00:46;;;;;;;10.68;6.57;;;;;;;;;;4983086;28;20430;-63
2023/07/06 03:03:14;;;;;;;12.23;6.70;;;;;;;;;;4973059;28;20842;-62
2023/07/06 03:05:44;;;;;;;11.20;6.57;;;;;;;;;;4973218;28;20828;-61
2023/07/06 03:08:11;;;;;;;9.60;6.65;;;;;;;;;;4982665;28;20418;-63
2023/07/06 03:10:38;;;;;;;10.25;6.68;;;;;;;;;;4981894;28;20919;-63
2023/07/06 03:13:06;;;;;;;10.25;6.78;;;;;;;;;;4985423;28;20504;-63
2023/07/06 03:15:34;;;;;;;12.90;6.97;;;;;;;;;;4982758;28;20434;-63
2023/07/06 03:18:01;;;;;;;10.60;7.13;;;;;;;;;;4981644;28;20480;-61
2023/07/06 03:20:28;;;;;;;9.32;6.82;;;;;;;;;;4982013;28;20449;-61
2023/07/06 03:22:55;;;;;;;9.82;6.65;;;;;;;;;;4982033;28;20426;-60
2023/07/06 03:25:24;;;;;;;10.10;6.72;;;;;;;;;;4984284;28;20472;-62
2023/07/06 03:27:51;;;;;;;11.98;7.22;;;;;;;;;;4981613;28;20496;-60
2023/07/06 03:30:20;;;;;;;9.83;7.17;;;;;;;;;;4987482;28;20445;-61
2023/07/06 03:32:48;;;;;;;9.23;6.93;;;;;;;;;;4983917;28;20850;-61
2023/07/06 03:35:15;;;;;;;7.82;6.05;;;;;;;;;;4982483;28;20434;-59
2023/07/06 03:37:43;;;;;;;9.95;6.20;;;;;;;;;;4985148;28;20812;-61
2023/07/06 03:40:12;;;;;;;11.32;6.32;;;;;;;;;;4986997;28;20429;-62
2023/07/06 03:42:40;;;;;;;10.30;6.10;;;;;;;;;;4983467;28;20451;-59
2023/07/06 03:45:08;;;;;;;12.25;6.88;;;;;;;;;;4983659;28;20498;-62
2023/07/06 03:47:37;;;;;;;8.70;6.35;;;;;;;;;;4982042;28;20430;-62
2023/07/06 03:50:08;;;;;;;7.78;6.20;;;;;;;;;;4986524;28;20774;-58
2023/07/06 03:52:37;;;;;;;9.67;6.60;;;;;;;;;;4987744;28;20787;-61
2023/07/06 03:55:04;;;;;;;7.37;6.03;;;;;;;;;;4984833;28;20457;-60
2023/07/06 03:57:32;;;;;;;10.75;6.20;;;;;;;;;;4983251;28;20474;-62
2023/07/06 03:59:59;;;;;;;9.73;6.18;;;;;;;;;;4988580;28;20429;-62
2023/07/06 04:02:26;;;;;;;9.18;5.85;;;;;;;;;;4982871;28;20424;-60
2023/07/06 04:04:54;;;;;;;10.00;5.70;;;;;;;;;;4984931;28;20472;-60
2023/07/06 04:07:22;;;;;;;10.07;5.55;;;;;;;;;;4984926;28;20504;-61
2023/07/06 04:09:49;;;;;;;9.07;5.18;;;;;;;;;;4974174;28;20423;-61
2023/07/06 04:12:16;;;;;;;9.23;5.32;;;;;;;;;;4974090;28;20416;-64
2023/07/06 04:14:43;;;;;;;10.90;5.60;;;;;;;;;;4974208;28;20463;-63
2023/07/06 04:17:10;;;;;;;8.10;5.07;;;;;;;;;;4981228;28;20422;-63
2023/07/06 04:19:37;;;;;;;11.68;4.97;;;;;;;;;;4988783;28;20469;-63
2023/07/06 04:22:04;;;;;;;14.65;5.40;;;;;;;;;;4986498;28;20901;-63
2023/07/06 04:24:34;;;;;;;11.10;5.13;;;;;;;;;;4985357;28;20474;-62
2023/07/06 04:27:01;;;;;;;11.38;5.00;;;;;;;;;;4981206;28;20776;-63
2023/07/06 04:29:29;;;;;;;9.43;4.97;;;;;;;;;;4983477;28;20420;-63
2023/07/06 04:31:56;;;;;;;7.20;4.10;;;;;;;;;;4982024;28;20423;-63
2023/07/06 04:34:23;;;;;;;10.02;4.75;;;;;;;;;;4986843;28;20422;-63
2023/07/06 04:36:50;;;;;;;10.88;6.40;;;;;;;;;;4984941;28;20418;-63
2023/07/06 04:39:17;;;;;;;8.13;4.78;;;;;;;;;;4981012;28;20424;-63
2023/07/06 04:41:46;;;;;;;6.88;4.60;;;;;;;;;;4982562;28;20416;-63
2023/07/06 04:44:13;;;;;;;8.55;4.68;;;;;;;;;;4989049;28;20430;-64
2023/07/06 04:46:40;;;;;;;9.27;4.63;;;;;;;;;;4986740;28;20462;-63
2023/07/06 04:49:07;;;;;;;10.15;4.32;;;;;;;;;;4986337;28;20496;-64
2023/07/06 04:51:35;;;;;;;9.57;4.50;;;;;;;;;;4984184;28;20446;-62
2023/07/06 04:54:02;;;;;;;8.18;4.40;;;;;;;;;;4983480;28;20452;-61
2023/07/06 04:56:30;;;;;;;10.60;4.50;;;;;;;;;;4981206;28;20455;-59
2023/07/06 04:58:58;;;;;;;8.15;3.88;;;;;;;;;;4982689;28;20456;-61
2023/07/06 05:01:26;;;;;;;7.65;4.05;;;;;;;;;;4983721;28;20418;-60
2023/07/06 05:03:53;;;;;;;7.10;3.80;;;;;;;;;;4986143;28;20507;-61
2023/07/06 05:06:21;;;;;;;9.25;3.80;;;;;;;;;;4980575;28;20428;-62
2023/07/06 05:08:49;;;;;;;7.40;3.80;;;;;;;;;;4984837;28;20426;-59
2023/07/06 05:11:16;;;;;;;9.20;3.90;;;;;;;;;;4976688;28;20435;-60
2023/07/06 05:13:43;;;;;;;7.13;3.80;;;;;;;;;;4973022;28;20451;-61
2023/07/06 05:16:11;;;;;;;9.07;3.53;;;;;;;;;;4972853;28;20427;-61
2023/07/06 05:18:38;;;;;;;9.80;4.05;;;;;;;;;;4975735;28;20514;-65
2023/07/06 05:21:05;;;;;;;7.22;3.15;;;;;;;;;;4988159;28;20481;-63
2023/07/06 05:23:32;;;;;;;6.18;3.50;;;;;;;;;;4987154;28;20468;-61
2023/07/06 05:26:02;;;;;;;8.07;3.22;;;;;;;;;;4984032;28;20427;-62
2023/07/06 05:28:30;;;;;;;6.53;3.45;;;;;;;;;;4988724;28;20426;-62
2023/07/06 05:30:59;;;;;;;6.60;3.30;;;;;;;;;;4976975;28;20415;-60
2023/07/06 05:33:27;;;;;;;8.33;3.10;;;;;;;;;;4988068;28;20445;-58
2023/07/06 05:35:54;;;;;;;8.40;3.38;;;;;;;;;;4978517;28;20428;-62
2023/07/06 05:38:21;;;;;;;10.30;3.38;;;;;;;;;;4981599;28;20422;-61
2023/07/06 05:40:48;;;;;;;10.40;3.20;;;;;;;;;;4982255;28;20479;-62
2023/07/06 05:43:16;;;;;;;7.60;3.25;;;;;;;;;;4983127;28;20430;-63
2023/07/06 05:45:43;;;;;;;6.37;3.07;;;;;;;;;;4978932;28;20572;-63
2023/07/06 05:48:11;;;;;;;8.40;2.97;;;;;;;;;;4970875;28;20415;-60
2023/07/06 05:50:40;;;;;;;7.35;3.03;;;;;;;;;;4984512;28;20601;-62
2023/07/06 05:53:07;;;;;;;10.63;3.45;;;;;;;;;;4982141;28;20465;-65
2023/07/06 05:55:35;;;;;;;9.88;3.20;;;;;;;;;;4980501;28;20479;-65
2023/07/06 05:58:02;;;;;;;8.43;3.05;;;;;;;;;;4980359;28;20427;-67
2023/07/06 06:00:33;;;;;;;8.73;3.10;;;;;;;;;;4983891;28;20478;-65
2023/07/06 06:03:01;;;;;;;7.47;3.10;;;;;;;;;;4980896;28;20453;-65
2023/07/06 06:05:29;;;;;;;9.70;3.20;;;;;;;;;;4980978;28;20507;-65
2023/07/06 06:07:58;;;;;;;9.43;3.25;;;;;;;;;;4984133;28;20452;-67
2023/07/06 06:10:25;;;;;;;10.45;3.50;;;;;;;;;;4986033;28;20429;-66
2023/07/06 06:12:52;;;;;;;8.50;3.45;;;;;;;;;;4983621;28;20447;-66
2023/07/06 06:15:19;;;;;;;11.10;3.47;;;;;;;;;;4982428;28;20429;-65
2023/07/06 06:17:46;;;;;;;8.63;3.33;;;;;;;;;;4984831;28;20812;-65
2023/07/06 06:20:13;;;;;;;9.88;3.45;;;;;;;;;;4986134;28;20480;-64
2023/07/06 06:22:41;;;;;;;8.03;3.10;;;;;;;;;;4985609;28;20437;-65
2023/07/06 06:25:09;;;;;;;9.63;3.20;;;;;;;;;;4978316;28;20538;-64
2023/07/06 06:27:36;;;;;;;9.02;3.22;;;;;;;;;;4977691;28;20435;-64
2023/07/06 06:30:05;;;;;;;10.20;3.20;;;;;;;;;;4984508;28;20921;-64
2023/07/06 06:32:34;;;;;;;9.05;3.22;;;;;;;;;;4981689;28;20468;-65
2023/07/06 06:35:02;;;;;;;12.57;3.65;;;;;;;;;;4980945;28;20801;-64
2023/07/06 06:37:29;;;;;;;8.93;3.50;;;;;;;;;;4982349;28;20594;-65
2023/07/06 06:39:59;;;;;;;11.38;3.40;;;;;;;;;;4979908;28;20815;-66
2023/07/06 06:42:28;;;;;;;10.93;3.35;;;;;;;;;;4985668;28;20464;-64
2023/07/06 06:44:57;;;;;;;11.52;3.70;;;;;;;;;;4988312;28;20904;-65
2023/07/06 06:47:24;;;;;;;8.10;3.15;;;;;;;;;;4989394;28;20466;-68
2023/07/06 06:49:52;;;;;;;12.13;3.58;;;;;;;;;;4985505;28;20429;-67
2023/07/06 06:52:20;;;;;;;11.27;3.40;;;;;;;;;;4983736;28;20428;-67
2023/07/06 06:54:50;;;;;;;9.15;3.15;;;;;;;;;;4978840;28;21004;-67
2023/07/06 06:57:17;;;;;;;8.90;3.63;;;;;;;;;;4979057;28;20439;-67
2023/07/06 06:59:47;;;;;;;11.13;3.50;;;;;;;;;;4983150;28;20423;-65
2023/07/06 07:02:14;;;;;;;8.93;3.40;;;;;;;;;;4983604;28;20434;-67
2023/07/06 07:04:41;;;;;;;11.57;3.47;;;;;;;;;;4977723;28;20428;-65
2023/07/06 07:07:08;;;;;;;11.73;3.95;;;;;;;;;;4980063;28;20428;-66
2023/07/06 07:09:35;;;;;;;10.25;3.33;;;;;;;;;;4979251;28;20475;-66
2023/07/06 07:12:02;;;;;;;8.10;3.17;;;;;;;;;;4980652;28;20488;-65
2023/07/06 07:14:29;;;;;;;11.73;3.65;;;;;;;;;;4980653;28;20422;-65
2023/07/06 07:16:58;;;;;;;10.88;3.17;;;;;;;;;;4978262;28;20510;-67
2023/07/06 07:19:25;;;;;;;8.90;3.10;;;;;;;;;;4980678;28;20426;-65
2023/07/06 07:21:52;;;;;;;10.73;3.17;;;;;;;;;;4979872;28;20424;-64
2023/07/06 07:24:19;;;;;;;9.40;2.80;;;;;;;;;;4979795;28;20768;-65
2023/07/06 07:26:48;;;;;;;5.93;2.90;;;;;;;;;;4981376;28;20426;-66
2023/07/06 07:29:16;;;;;;;7.85;3.05;;;;;;;;;;4979004;28;20789;-65
2023/07/06 07:31:43;;;;;;;8.32;2.95;;;;;;;;;;4980389;28;20429;-65
2023/07/06 07:34:14;;;;;;;6.93;3.30;;;;;;;;;;4980493;28;20829;-65
2023/07/06 07:36:41;;;;;;;11.63;3.45;;;;;;;;;;4980338;28;20477;-67
2023/07/06 07:39:08;;;;;;;10.07;3.13;;;;;;;;;;4979965;28;20495;-70
2023/07/06 07:41:35;;;;;;;6.90;2.90;;;;;;;;;;4984333;28;20425;-68
2023/07/06 07:44:02;;;;;;;9.80;2.92;;;;;;;;;;4978081;28;20426;-68
2023/07/06 07:46:29;;;;;;;6.97;2.92;;;;;;;;;;4979037;28;20467;-65
2023/07/06 07:48:57;;;;;;;6.85;2.63;;;;;;;;;;4982049;28;20457;-66
2023/07/06 07:51:26;;;;;;;8.48;2.78;;;;;;;;;;4981464;28;20954;-65
2023/07/06 07:53:54;;;;;;;7.82;2.58;;;;;;;;;;4978800;28;20901;-65
2023/07/06 07:56:22;;;;;;;7.25;2.70;;;;;;;;;;4984384;28;20801;-66
2023/07/06 07:58:49;;;;;;;6.00;2.55;;;;;;;;;;4982218;28;20476;-65
2023/07/06 08:01:17;;;;;;;7.95;2.83;;;;;;;;;;4980564;28;20433;-66
2023/07/06 08:03:44;;;;;;;7.82;2.88;;;;;;;;;;4979579;28;20427;-66
2023/07/06 08:06:14;;;;;;;7.82;2.55;;;;;;;;;;4978654;28;20424;-65
2023/07/06 08:08:43;;;;;;;7.50;2.65;;;;;;;;;;4977161;28;20437;-65
2023/07/06 08:11:11;;;;;;;7.68;2.53;;;;;;;;;;4981127;28;20430;-66
2023/07/06 08:13:38;;;;;;;6.03;2.65;;;;;;;;;;4980562;28;20423;-64
2023/07/06 08:16:06;;;;;;;8.80;2.92;;;;;;;;;;4985844;28;20434;-65
2023/07/06 08:18:34;;;;;;;7.20;2.65;;;;;;;;;;4984236;28;20457;-65
2023/07/06 08:21:02;;;;;;;6.03;2.60;;;;;;;;;;4987981;28;20425;-66
2023/07/06 08:23:30;;;;;;;7.63;2.80;;;;;;;;;;4985271;28;20458;-65
2023/07/06 08:25:58;;;;;;;7.77;3.00;;;;;;;;;;4986722;28;20414;-66
2023/07/06 08:28:28;;;;;;;6.43;2.30;;;;;;;;;;4984076;28;20424;-65
2023/07/06 08:30:56;;;;;;;7.72;2.85;;;;;;;;;;4982385;28;20486;-66
2023/07/06 08:33:23;;;;;;;7.30;2.60;;;;;;;;;;4978850;28;20794;-65
2023/07/06 08:35:52;;;;;;;10.45;2.85;;;;;;;;;;4983891;28;20469;-66
2023/07/06 08:38:19;;;;;;;9.40;2.42;;;;;;;;;;4984699;28;20423;-65
2023/07/06 08:40:49;;;;;;;5.43;2.42;;;;;;;;;;4983861;28;20426;-66
2023/07/06 08:43:19;;;;;;;4.90;2.15;;;;;;;;;;4982861;28;20426;-65
2023/07/06 08:45:48;;;;;;;6.65;2.25;;;;;;;;;;4981262;28;20459;-65
2023/07/06 08:48:18;;;;;;;8.23;2.35;;;;;;;;;;4981094;28;20799;-65
2023/07/06 08:50:48;;;;;;;4.90;2.10;;;;;;;;;;4989380;28;20468;-66
2023/07/06 08:53:16;;;;;;;5.80;2.38;;;;;;;;;;4984807;28;20525;-67
2023/07/06 08:55:43;;;;;;;5.63;2.13;;;;;;;;;;4983315;28;20424;-66
2023/07/06 08:58:12;;;;;;;8.60;2.40;;;;;;;;;;4986539;28;20426;-70
2023/07/06 09:00:40;;;;;;;7.53;2.30;;;;;;;;;;4988741;28;20894;-69
2023/07/06 09:03:08;;;;;;;6.68;2.13;;;;;;;;;;4983671;28;20482;-67
2023/07/06 09:05:37;;;;;;;7.63;2.00;;;;;;;;;;4980601;28;20428;-65
2023/07/06 09:08:04;;;;;;;7.05;2.30;;;;;;;;;;4982823;28;20422;-69
2023/07/06 09:10:32;;;;;;;6.13;1.92;;;;;;;;;;4985144;28;20485;-67
2023/07/06 09:13:13;;;;;;;5.13;2.35;;;;;;;;;;4980811;28;20428;-65
2023/07/06 09:15:44;;;;;;;5.68;1.90;;;;;;;;;;4983950;28;20908;-67
2023/07/06 09:18:14;;;;;;;7.43;2.15;;;;;;;;;;4980015;28;20434;-67
2023/07/06 09:20:41;;;;;;;6.28;2.10;;;;;;;;;;4987393;28;20426;-66
2023/07/06 09:23:13;;;;;;;6.53;2.30;;;;;;;;;;4983133;28;20422;-66
2023/07/06 09:25:42;;;;;;;5.05;2.10;;;;;;;;;;4979906;28;20423;-66
2023/07/06 09:28:10;;;;;;;5.55;2.00;;;;;;;;;;4984036;28;20425;-67
2023/07/06 09:30:39;;;;;;;6.35;2.17;;;;;;;;;;4982326;28;20831;-66
2023/07/06 09:33:16;;;;;;;6.50;2.10;;;;;;;;;;4979862;28;20443;-67
2023/07/06 09:35:43;;;;;;;4.90;2.20;;;;;;;;;;4985974;28;20425;-66
2023/07/06 09:38:13;;;;;;;5.82;1.70;;;;;;;;;;4978032;28;20432;-65
2023/07/06 09:40:43;;;;;;;6.47;1.80;;;;;;;;;;4982346;28;20488;-66
2023/07/06 09:43:17;;;;;;;5.63;1.90;;;;;;;;;;4982924;28;20757;-66
2023/07/06 09:45:44;;;;;;;3.30;1.60;;;;;;;;;;4978784;28;20854;-62
2023/07/06 09:48:17;;;;;;;4.32;1.98;;;;;;;;;;4983656;28;20425;-62
2023/07/06 09:50:45;;;;;;;4.93;1.92;;;;;;;;;;4985639;28;20450;-62
2023/07/06 09:53:14;;;;;;;6.38;2.22;;;;;;;;;;4982851;28;20430;-61
2023/07/06 09:55:41;;;;;;;5.63;2.40;;;;;;;;;;4984988;28;20886;-61
2023/07/06 09:58:15;;;;;;;8.25;2.20;;;;;;;;;;4981417;28;20430;-63
2023/07/06 10:00:47;;;;;;;4.65;1.83;;;;;;;;;;4983177;28;20443;-62
2023/07/06 10:03:19;;;;;;;6.35;1.90;;;;;;;;;;4987160;28;20429;-62
2023/07/06 10:05:51;;;;;;;7.75;1.95;;;;;;;;;;4981624;28;20432;-62
2023/07/06 10:08:21;;;;;;;5.78;1.98;;;;;;;;;;4979292;28;20422;-61
2023/07/06 10:10:58;;;;;;;5.55;1.80;;;;;;;;;;4981029;28;20433;-62
2023/07/06 10:13:29;;;;;;;7.13;1.98;;;;;;;;;;4986623;28;20426;-62
2023/07/06 10:15:59;;;;;;;7.13;1.85;;;;;;;;;;4984160;28;20490;-62
2023/07/06 10:18:30;;;;;;;7.10;2.13;;;;;;;;;;4984676;28;20436;-65
2023/07/06 10:20:59;;;;;;;5.53;1.80;;;;;;;;;;4988618;28;20980;-61
2023/07/06 10:23:32;;;;;;;7.45;2.10;;;;;;;;;;4985597;28;20426;-63
2023/07/06 10:26:02;;;;;;;5.25;1.85;;;;;;;;;;4981255;28;20527;-64
2023/07/06 10:28:31;;;;;;;5.35;1.70;;;;;;;;;;4989398;28;20843;-61
2023/07/06 10:30:59;;;;;;;4.67;1.60;;;;;;;;;;4981530;28;20941;-61
2023/07/06 10:33:29;;;;;;;5.28;1.50;;;;;;;;;;4983939;28;20472;-61
2023/07/06 10:35:58;;;;;;;5.43;1.80;;;;;;;;;;4981649;28;20509;-61
2023/07/06 10:38:25;;;;;;;5.30;2.03;;;;;;;;;;4981781;28;20462;-61
2023/07/06 10:40:53;;;;;;;3.78;1.70;;;;;;;;;;4982664;28;20419;-60
2023/07/06 10:43:21;;;;;;;6.50;2.00;;;;;;;;;;4982519;28;20438;-58
2023/07/06 10:45:49;;;;;;;5.45;1.80;;;;;;;;;;4984068;28;20884;-61
2023/07/06 10:48:18;;;;;;;4.38;1.50;;;;;;;;;;4979622;28;20424;-62
2023/07/06 10:50:48;;;;;;;4.50;1.65;;;;;;;;;;4984585;28;20943;-64
2023/07/06 10:53:21;;;;;;;6.30;1.65;;;;;;;;;;4980056;28;20828;-63
2023/07/06 10:55:58;;;;;;;5.32;1.77;;;;;;;;;;4979183;28;20539;-65
2023/07/06 10:58:26;;;;;;;3.53;1.50;;;;;;;;;;4980632;28;20919;-64
2023/07/06 11:00:54;;;;;;;4.03;1.40;;;;;;;;;;4981698;28;20434;-62
2023/07/06 11:03:23;;;;;;;4.25;1.70;;;;;;;;;;4979241;28;20485;-65
2023/07/06 11:05:55;;;;;;;4.40;1.70;;;;;;;;;;4982750;28;20505;-63
2023/07/06 11:08:37;;;;;;;6.30;1.75;;;;;;;;;;4983920;28;20422;-62
2023/07/06 11:11:04;;;;;;;4.95;1.70;;;;;;;;;;4980419;28;20422;-62
2023/07/06 11:13:32;;;;;;;5.10;1.50;;;;;;;;;;4977448;28;20481;-64
2023/07/06 11:16:04;;;;;;;5.07;1.70;;;;;;;;;;4980335;28;20445;-63
2023/07/06 11:18:35;;;;;;;4.30;1.70;;;;;;;;;;4978427;28;20515;-62
2023/07/06 11:21:08;;;;;;;6.72;1.58;;;;;;;;;;4978517;28;20454;-62
2023/07/06 11:23:37;;;;;;;6.07;1.75;;;;;;;;;;4978538;28;20510;-61
2023/07/06 11:26:05;;;;;;;5.13;1.45;;;;;;;;;;4981363;28;20428;-64
2023/07/06 11:28:34;;;;;;;4.43;1.60;;;;;;;;;;4983033;28;20424;-63
2023/07/06 11:31:05;;;;;;;4.20;1.58;;;;;;;;;;4982985;28;20423;-63
2023/07/06 11:33:38;;;;;;;4.93;1.73;;;;;;;;;;4981897;28;20435;-63
2023/07/06 11:36:10;;;;;;;3.97;1.70;;;;;;;;;;4988443;28;20422;-64
2023/07/06 11:38:56;;;;;;;3.77;1.50;;;;;;;;;;4977327;28;20434;-64
2023/07/06 11:41:28;;;;;;;2.40;1.20;;;;;;;;;;4985036;28;20521;-63
2023/07/06 11:44:01;;;;;;;3.88;1.40;;;;;;;;;;4979499;28;20523;-64
2023/07/06 11:46:36;;;;;;;4.70;1.55;;;;;;;;;;4985127;28;20426;-64
2023/07/06 11:49:09;;;;;;;3.42;1.30;;;;;;;;;;4985292;28;20509;-64
2023/07/06 11:51:38;;;;;;;4.60;1.60;;;;;;;;;;4981431;28;20510;-64
2023/07/06 11:54:19;;;;;;;6.05;1.95;;;;;;;;;;4987352;28;20942;-63
2023/07/06 11:57:13;;;;;;;3.58;1.58;;;;;;;;;;4984675;28;20426;-63
2023/07/06 11:59:40;;;;;;;3.50;1.50;;;;;;;;;;4986057;28;20411;-63
2023/07/06 12:02:08;;;;;;;3.42;1.70;;;;;;;;;;4985002;28;20419;-62
2023/07/06 12:04:35;;;;;;;4.13;1.40;;;;;;;;;;4984842;28;20919;-63
2023/07/06 12:07:08;;;;;;;3.42;1.50;;;;;;;;;;4982129;28;20544;-63
2023/07/06 12:09:38;;;;;;;3.70;1.42;;;;;;;;;;4988015;28;20505;-63
2023/07/06 12:12:07;;;;;;;3.90;1.40;;;;;;;;;;4987570;28;20432;-62
2023/07/06 12:14:35;;;;;;;5.40;1.83;;;;;;;;;;4987275;28;20434;-62
2023/07/06 12:17:03;;;;;;;6.27;1.40;;;;;;;;;;4982842;28;20499;-62
2023/07/06 12:19:30;;;;;;;4.07;1.40;;;;;;;;;;4986896;28;20422;-63
2023/07/06 12:21:58;;;;;;;4.50;1.85;;;;;;;;;;4983552;28;20632;-64
2023/07/06 12:24:27;;;;;;;2.90;1.30;;;;;;;;;;4982199;28;20808;-62
2023/07/06 12:26:56;;;;;;;3.28;1.33;;;;;;;;;;4989512;28;20427;-62
2023/07/06 12:29:27;;;;;;;2.65;1.30;;;;;;;;;;4989332;28;20645;-62
2023/07/06 12:31:54;;;;;;;3.67;1.40;;;;;;;;;;4979539;28;20969;-63
2023/07/06 12:34:22;;;;;;;3.38;1.08;;;;;;;;;;4982393;28;20428;-62
2023/07/06 12:36:50;;;;;;;2.70;1.20;;;;;;;;;;4986767;28;20488;-61
2023/07/06 12:39:18;;;;;;;3.88;1.38;;;;;;;;;;4982061;28;20434;-64
2023/07/06 12:41:47;;;;;;;3.90;1.20;;;;;;;;;;4984902;28;20433;-64
2023/07/06 12:44:17;;;;;;;2.72;1.20;;;;;;;;;;4983707;28;20509;-63
2023/07/06 12:46:47;;;;;;;6.10;1.48;;;;;;;;;;4980048;28;20459;-63
2023/07/06 12:49:20;;;;;;;4.00;1.35;;;;;;;;;;4989022;28;20505;-63
2023/07/06 12:51:48;;;;;;;3.97;1.35;;;;;;;;;;4984265;28;20468;-63
2023/07/06 12:54:16;;;;;;;2.88;1.38;;;;;;;;;;4985333;28;20505;-63
2023/07/06 12:56:44;;;;;;;4.00;1.27;;;;;;;;;;4981278;28;20490;-63
2023/07/06 12:59:20;;;;;;;4.68;1.48;;;;;;;;;;4983734;28;20518;-62
2023/07/06 13:01:47;;;;;;;4.57;1.40;;;;;;;;;;4983280;28;20426;-61
2023/07/06 13:04:15;;;;;;;3.53;1.27;;;;;;;;;;4981834;28;20478;-62
2023/07/06 13:06:44;;;;;;;2.80;1.10;;;;;;;;;;4977427;28;20463;-66
2023/07/06 13:09:14;;;;;;;4.33;1.27;;;;;;;;;;4981536;28;20465;-64
2023/07/06 13:11:43;;;;;;;2.53;1.20;;;;;;;;;;4980073;28;21073;-64
2023/07/06 13:14:17;;;;;;;5.20;1.30;;;;;;;;;;4983981;28;20432;-64
2023/07/06 13:16:45;;;;;;;3.13;1.13;;;;;;;;;;4983122;28;20891;-64
2023/07/06 13:19:12;;;;;;;3.67;1.40;;;;;;;;;;4979421;28;20485;-63
2023/07/06 13:21:40;;;;;;;2.72;1.10;;;;;;;;;;4985928;28;20438;-62
2023/07/06 13:24:11;;;;;;;3.42;1.30;;;;;;;;;;4983360;28;21230;-62
2023/07/06 13:26:37;;;;;;;3.38;1.00;;;;;;;;;;4981339;28;20429;-62
2023/07/06 13:29:06;;;;;;;2.60;0.90;;;;;;;;;;4987072;28;20471;-62
2023/07/06 13:31:35;;;;;;;2.28;0.90;;;;;;;;;;4988587;28;20576;-62
2023/07/06 13:34:02;;;;;;;3.63;1.20;;;;;;;;;;4978799;28;20428;-60
2023/07/06 13:36:29;;;;;;;3.47;1.30;;;;;;;;;;4980414;28;20420;-61
2023/07/06 13:38:56;;;;;;;2.50;1.00;;;;;;;;;;4982404;28;20504;-61
2023/07/06 13:41:26;;;;;;;2.45;0.90;;;;;;;;;;4981379;28;20474;-61
2023/07/06 13:43:53;;;;;;;3.08;1.00;;;;;;;;;;4980241;28;20442;-63
2023/07/06 13:46:20;;;;;;;1.83;1.20;;;;;;;;;;4982620;28;20969;-61
2023/07/06 13:48:48;;;;;;;1.90;1.10;;;;;;;;;;4984156;28;20788;-60
2023/07/06 13:51:15;;;;;;;2.20;1.20;;;;;;;;;;4985073;28;20430;-62
2023/07/06 13:53:42;;;;;;;1.50;1.00;;;;;;;;;;4983933;28;20559;-59
2023/07/06 13:56:12;;;;;;;1.98;1.05;;;;;;;;;;4978902;28;20428;-61
2023/07/06 13:58:41;;;;;;;2.17;0.90;;;;;;;;;;4981453;28;20430;-60
2023/07/06 14:01:10;;;;;;;1.90;0.80;;;;;;;;;;4981637;28;20430;-60
2023/07/06 14:03:38;;;;;;;2.28;1.15;;;;;;;;;;4980978;28;20431;-61
2023/07/06 14:06:06;;;;;;;2.15;1.02;;;;;;;;;;4979884;28;20419;-63
2023/07/06 14:08:33;;;;;;;3.50;1.20;;;;;;;;;;4980509;28;20416;-61
2023/07/06 14:11:01;;;;;;;4.03;1.20;;;;;;;;;;4979969;28;20432;-63
2023/07/06 14:13:29;;;;;;;1.70;0.90;;;;;;;;;;4981663;28;20499;-61
2023/07/06 14:15:56;;;;;;;2.20;1.05;;;;;;;;;;4981033;28;20432;-62
2023/07/06 14:18:26;;;;;;;2.33;0.95;;;;;;;;;;4984110;28;20459;-63
2023/07/06 14:20:57;;;;;;;2.58;1.00;;;;;;;;;;4983687;28;20428;-62
2023/07/06 14:23:27;;;;;;;1.63;0.93;;;;;;;;;;4983343;28;20508;-64
2023/07/06 14:25:54;;;;;;;2.95;1.00;;;;;;;;;;4985973;28;20428;-64
2023/07/06 14:28:26;;;;;;;1.65;1.00;;;;;;;;;;4983108;28;20427;-63
2023/07/06 14:30:53;;;;;;;1.92;0.90;;;;;;;;;;4976289;28;20427;-65
2023/07/06 14:33:21;;;;;;;2.40;1.10;;;;;;;;;;4984238;28;20430;-63
2023/07/06 14:35:48;;;;;;;3.08;1.08;;;;;;;;;;4981275;28;20428;-63
2023/07/06 14:38:16;;;;;;;2.60;0.90;;;;;;;;;;4982080;28;20431;-64
2023/07/06 14:40:45;;;;;;;2.40;1.10;;;;;;;;;;4980079;28;20423;-63
2023/07/06 14:43:12;;;;;;;3.50;1.23;;;;;;;;;;4984358;28;20423;-64
2023/07/06 14:45:39;;;;;;;3.28;1.30;;;;;;;;;;4982786;28;20769;-60
2023/07/06 14:48:07;;;;;;;6.20;1.27;;;;;;;;;;4981137;28;20414;-61
2023/07/06 14:50:35;;;;;;;2.30;1.20;;;;;;;;;;4982395;28;20953;-62